sensor_id;sensor_type;location;lat;lon;timestamp;pressure;altitude;pressure_sealevel;temperature;humidity
49122;BME280;35529;44.342;25.944;2022-08-21T00:00:56;99960.31;;;24.16;64.71
49122;BME280;35529;44.342;25.944;2022-08-21T00:03:22;99956.19;;;24.19;64.67
49122;BME280;35529;44.342;25.944;2022-08-21T00:05:49;99961.63;;;24.19;64.51
49122;BME280;35529;44.342;25.944;2022-08-21T00:08:19;99961.91;;;24.17;64.94
49122;BME280;35529;44.342;25.944;2022-08-21T00:10:46;99957.09;;;24.14;64.91
49122;BME280;35529;44.342;25.944;2022-08-21T00:13:13;99958.50;;;24.12;65.15
49122;BME280;35529;44.342;25.944;2022-08-21T00:15:39;99955.38;;;24.04;65.41
49122;BME280;35529;44.342;25.944;2022-08-21T00:18:06;99948.66;;;24.02;65.60
49122;BME280;35529;44.342;25.944;2022-08-21T00:20:32;99955.19;;;24.01;65.63
49122;BME280;35529;44.342;25.944;2022-08-21T00:22:58;99948.94;;;24.00;65.70
49122;BME280;35529;44.342;25.944;2022-08-21T00:25:25;99938.22;;;23.95;65.84
49122;BME280;35529;44.342;25.944;2022-08-21T00:27:51;99943.13;;;23.93;65.99
49122;BME280;35529;44.342;25.944;2022-08-21T00:30:18;99943.91;;;23.93;66.01
49122;BME280;35529;44.342;25.944;2022-08-21T00:32:45;99942.59;;;23.91;66.37
49122;BME280;35529;44.342;25.944;2022-08-21T00:35:13;99950.00;;;23.85;66.61
49122;BME280;35529;44.342;25.944;2022-08-21T00:37:40;99949.59;;;23.78;66.88
49122;BME280;35529;44.342;25.944;2022-08-21T00:40:07;99950.47;;;23.73;67.03
49122;BME280;35529;44.342;25.944;2022-08-21T00:42:35;99942.41;;;23.68;67.26
49122;BME280;35529;44.342;25.944;2022-08-21T00:45:02;99938.50;;;23.60;67.96
49122;BME280;35529;44.342;25.944;2022-08-21T00:47:29;99937.50;;;23.56;68.10
49122;BME280;35529;44.342;25.944;2022-08-21T00:49:55;99939.69;;;23.54;68.21
49122;BME280;35529;44.342;25.944;2022-08-21T00:52:28;99931.84;;;23.53;68.17
49122;BME280;35529;44.342;25.944;2022-08-21T00:54:55;99935.97;;;23.50;68.33
49122;BME280;35529;44.342;25.944;2022-08-21T00:57:26;99931.63;;;23.49;68.43
49122;BME280;35529;44.342;25.944;2022-08-21T00:59:53;99939.47;;;23.51;68.58
49122;BME280;35529;44.342;25.944;2022-08-21T01:02:21;99935.75;;;23.47;68.69
49122;BME280;35529;44.342;25.944;2022-08-21T01:04:47;99929.22;;;23.48;68.58
49122;BME280;35529;44.342;25.944;2022-08-21T01:07:13;99940.84;;;23.48;68.62
49122;BME280;35529;44.342;25.944;2022-08-21T01:09:40;99941.97;;;23.47;68.78
49122;BME280;35529;44.342;25.944;2022-08-21T01:12:06;99931.72;;;23.44;69.05
49122;BME280;35529;44.342;25.944;2022-08-21T01:14:32;99936.63;;;23.42;69.02
49122;BME280;35529;44.342;25.944;2022-08-21T01:16:59;99936.13;;;23.40;69.12
49122;BME280;35529;44.342;25.944;2022-08-21T01:19:26;99940.22;;;23.37;69.31
49122;BME280;35529;44.342;25.944;2022-08-21T01:21:53;99931.38;;;23.32;69.46
49122;BME280;35529;44.342;25.944;2022-08-21T01:24:19;99942.00;;;23.28;69.52
49122;BME280;35529;44.342;25.944;2022-08-21T01:26:45;99933.16;;;23.22;69.90
49122;BME280;35529;44.342;25.944;2022-08-21T01:29:14;99934.25;;;23.21;69.80
49122;BME280;35529;44.342;25.944;2022-08-21T01:31:42;99936.44;;;23.19;69.79
49122;BME280;35529;44.342;25.944;2022-08-21T01:34:08;99931.03;;;23.19;70.00
49122;BME280;35529;44.342;25.944;2022-08-21T01:36:34;99926.22;;;23.16;70.01
49122;BME280;35529;44.342;25.944;2022-08-21T01:39:01;99920.28;;;23.14;70.17
49122;BME280;35529;44.342;25.944;2022-08-21T01:41:28;99921.94;;;23.10;70.22
49122;BME280;35529;44.342;25.944;2022-08-21T01:43:54;99931.44;;;23.07;70.38
49122;BME280;35529;44.342;25.944;2022-08-21T01:46:20;99920.13;;;23.05;70.31
49122;BME280;35529;44.342;25.944;2022-08-21T01:48:46;99927.41;;;23.05;70.45
49122;BME280;35529;44.342;25.944;2022-08-21T01:51:12;99925.00;;;23.03;70.39
49122;BME280;35529;44.342;25.944;2022-08-21T01:53:39;99925.00;;;23.03;70.39
49122;BME280;35529;44.342;25.944;2022-08-21T01:56:07;99925.09;;;22.98;70.42
49122;BME280;35529;44.342;25.944;2022-08-21T01:58:33;99924.06;;;22.94;70.41
49122;BME280;35529;44.342;25.944;2022-08-21T02:01:00;99921.34;;;22.94;70.53
49122;BME280;35529;44.342;25.944;2022-08-21T02:03:30;99920.34;;;22.90;70.62
49122;BME280;35529;44.342;25.944;2022-08-21T02:05:56;99922.50;;;22.88;70.86
49122;BME280;35529;44.342;25.944;2022-08-21T02:08:22;99917.69;;;22.85;71.12
49122;BME280;35529;44.342;25.944;2022-08-21T02:10:49;99920.41;;;22.85;71.38
49122;BME280;35529;44.342;25.944;2022-08-21T02:13:16;99921.50;;;22.84;71.46
49122;BME280;35529;44.342;25.944;2022-08-21T02:15:42;99922.09;;;22.81;71.64
49122;BME280;35529;44.342;25.944;2022-08-21T02:18:09;99915.66;;;22.76;71.96
49122;BME280;35529;44.342;25.944;2022-08-21T02:20:42;99910.22;;;22.76;72.20
49122;BME280;35529;44.342;25.944;2022-08-21T02:23:09;99918.41;;;22.71;72.54
49122;BME280;35529;44.342;25.944;2022-08-21T02:25:36;99916.91;;;22.65;72.82
49122;BME280;35529;44.342;25.944;2022-08-21T02:28:04;99920.69;;;22.64;72.93
49122;BME280;35529;44.342;25.944;2022-08-21T02:30:32;99910.44;;;22.61;72.94
49122;BME280;35529;44.342;25.944;2022-08-21T02:32:59;99918.03;;;22.59;73.38
49122;BME280;35529;44.342;25.944;2022-08-21T02:35:26;99918.84;;;22.59;73.41
49122;BME280;35529;44.342;25.944;2022-08-21T02:37:53;99915.56;;;22.63;73.03
49122;BME280;35529;44.342;25.944;2022-08-21T02:40:21;99914.38;;;22.69;72.77
49122;BME280;35529;44.342;25.944;2022-08-21T02:42:48;99904.94;;;22.66;72.63
49122;BME280;35529;44.342;25.944;2022-08-21T02:45:15;99906.34;;;22.64;72.67
49122;BME280;35529;44.342;25.944;2022-08-21T02:47:55;99899.41;;;22.57;72.81
49122;BME280;35529;44.342;25.944;2022-08-21T02:50:23;99902.41;;;22.56;72.63
49122;BME280;35529;44.342;25.944;2022-08-21T02:52:49;99906.78;;;22.52;72.90
49122;BME280;35529;44.342;25.944;2022-08-21T02:55:18;99909.25;;;22.48;73.00
49122;BME280;35529;44.342;25.944;2022-08-21T02:57:46;99908.78;;;22.41;73.43
49122;BME280;35529;44.342;25.944;2022-08-21T03:00:13;99908.59;;;22.37;73.33
49122;BME280;35529;44.342;25.944;2022-08-21T03:02:40;99908.63;;;22.32;73.52
49122;BME280;35529;44.342;25.944;2022-08-21T03:05:08;99906.50;;;22.29;73.31
49122;BME280;35529;44.342;25.944;2022-08-21T03:07:34;99909.25;;;22.24;73.47
49122;BME280;35529;44.342;25.944;2022-08-21T03:10:00;99913.03;;;22.23;73.75
49122;BME280;35529;44.342;25.944;2022-08-21T03:12:26;99893.81;;;22.24;73.54
49122;BME280;35529;44.342;25.944;2022-08-21T03:14:52;99895.78;;;22.19;73.65
49122;BME280;35529;44.342;25.944;2022-08-21T03:17:18;99890.19;;;22.10;74.09
49122;BME280;35529;44.342;25.944;2022-08-21T03:19:45;99902.97;;;22.04;74.49
49122;BME280;35529;44.342;25.944;2022-08-21T03:22:11;99910.06;;;22.00;74.74
49122;BME280;35529;44.342;25.944;2022-08-21T03:24:37;99902.47;;;22.02;74.96
49122;BME280;35529;44.342;25.944;2022-08-21T03:27:03;99900.81;;;22.06;74.51
49122;BME280;35529;44.342;25.944;2022-08-21T03:29:29;99909.72;;;22.07;74.68
49122;BME280;35529;44.342;25.944;2022-08-21T03:31:55;99911.09;;;22.04;74.88
49122;BME280;35529;44.342;25.944;2022-08-21T03:34:21;99906.25;;;22.01;75.01
49122;BME280;35529;44.342;25.944;2022-08-21T03:36:48;99904.59;;;22.05;74.98
49122;BME280;35529;44.342;25.944;2022-08-21T03:39:15;99901.84;;;22.10;74.73
49122;BME280;35529;44.342;25.944;2022-08-21T03:41:41;99896.88;;;22.18;74.62
49122;BME280;35529;44.342;25.944;2022-08-21T03:44:08;99900.91;;;22.20;74.50
49122;BME280;35529;44.342;25.944;2022-08-21T03:46:34;99896.59;;;22.19;74.55
49122;BME280;35529;44.342;25.944;2022-08-21T03:49:00;99899.59;;;22.18;74.39
49122;BME280;35529;44.342;25.944;2022-08-21T03:51:26;99897.41;;;22.20;74.20
49122;BME280;35529;44.342;25.944;2022-08-21T03:53:52;99901.63;;;22.26;74.18
49122;BME280;35529;44.342;25.944;2022-08-21T03:56:20;99899.16;;;22.35;73.73
49122;BME280;35529;44.342;25.944;2022-08-21T03:58:46;99897.97;;;22.41;73.42
49122;BME280;35529;44.342;25.944;2022-08-21T04:01:12;99905.47;;;22.49;72.87
49122;BME280;35529;44.342;25.944;2022-08-21T04:03:38;99907.28;;;22.54;72.92
49122;BME280;35529;44.342;25.944;2022-08-21T04:06:04;99900.19;;;22.58;72.81
49122;BME280;35529;44.342;25.944;2022-08-21T04:08:30;99903.38;;;22.65;72.51
49122;BME280;35529;44.342;25.944;2022-08-21T04:10:57;99898.38;;;22.72;72.30
49122;BME280;35529;44.342;25.944;2022-08-21T04:13:24;99900.84;;;22.88;71.99
49122;BME280;35529;44.342;25.944;2022-08-21T04:15:52;99900.13;;;23.01;71.37
49122;BME280;35529;44.342;25.944;2022-08-21T04:18:18;99905.94;;;23.14;71.06
49122;BME280;35529;44.342;25.944;2022-08-21T04:20:44;99891.94;;;23.25;70.30
49122;BME280;35529;44.342;25.944;2022-08-21T04:23:12;99905.00;;;23.37;70.09
49122;BME280;35529;44.342;25.944;2022-08-21T04:25:38;99902.66;;;23.50;69.81
49122;BME280;35529;44.342;25.944;2022-08-21T04:28:04;99898.16;;;23.59;69.43
49122;BME280;35529;44.342;25.944;2022-08-21T04:30:30;99900.66;;;23.69;69.44
49122;BME280;35529;44.342;25.944;2022-08-21T04:32:57;99898.00;;;23.83;69.09
49122;BME280;35529;44.342;25.944;2022-08-21T04:35:24;99902.97;;;23.95;68.93
49122;BME280;35529;44.342;25.944;2022-08-21T04:37:50;99905.34;;;24.10;68.67
49122;BME280;35529;44.342;25.944;2022-08-21T04:40:17;99903.47;;;24.25;67.83
49122;BME280;35529;44.342;25.944;2022-08-21T04:42:48;99896.22;;;24.34;67.64
49122;BME280;35529;44.342;25.944;2022-08-21T04:47:48;99909.78;;;24.62;66.92
49122;BME280;35529;44.342;25.944;2022-08-21T04:50:14;99911.53;;;24.81;66.48
49122;BME280;35529;44.342;25.944;2022-08-21T04:52:40;99918.81;;;24.94;66.17
49122;BME280;35529;44.342;25.944;2022-08-21T04:55:06;99911.75;;;25.07;65.94
49122;BME280;35529;44.342;25.944;2022-08-21T04:57:33;99921.75;;;25.20;65.30
49122;BME280;35529;44.342;25.944;2022-08-21T05:00:00;99914.47;;;25.30;65.02
49122;BME280;35529;44.342;25.944;2022-08-21T05:02:26;99913.84;;;25.33;64.74
49122;BME280;35529;44.342;25.944;2022-08-21T05:04:52;99912.66;;;25.39;64.65
49122;BME280;35529;44.342;25.944;2022-08-21T05:07:24;99908.66;;;25.45;64.54
49122;BME280;35529;44.342;25.944;2022-08-21T05:09:52;99906.13;;;25.49;64.78
49122;BME280;35529;44.342;25.944;2022-08-21T05:12:19;99910.03;;;25.56;64.12
49122;BME280;35529;44.342;25.944;2022-08-21T05:14:46;99902.66;;;25.57;64.04
49122;BME280;35529;44.342;25.944;2022-08-21T05:17:13;99904.09;;;25.54;64.05
49122;BME280;35529;44.342;25.944;2022-08-21T05:19:39;99908.72;;;25.54;63.77
49122;BME280;35529;44.342;25.944;2022-08-21T05:22:05;99914.41;;;25.66;63.15
49122;BME280;35529;44.342;25.944;2022-08-21T05:24:32;99917.31;;;25.79;63.02
49122;BME280;35529;44.342;25.944;2022-08-21T05:26:58;99928.44;;;25.91;62.80
49122;BME280;35529;44.342;25.944;2022-08-21T05:29:24;99928.59;;;25.94;62.60
49122;BME280;35529;44.342;25.944;2022-08-21T05:31:51;99921.69;;;26.11;61.60
49122;BME280;35529;44.342;25.944;2022-08-21T05:34:19;99919.00;;;26.29;61.26
49122;BME280;35529;44.342;25.944;2022-08-21T05:36:45;99935.06;;;26.39;60.90
49122;BME280;35529;44.342;25.944;2022-08-21T05:39:11;99922.22;;;26.39;61.13
49122;BME280;35529;44.342;25.944;2022-08-21T05:41:38;99924.03;;;26.53;60.23
49122;BME280;35529;44.342;25.944;2022-08-21T05:44:04;99929.63;;;26.65;59.73
49122;BME280;35529;44.342;25.944;2022-08-21T05:46:30;99933.16;;;26.57;59.74
49122;BME280;35529;44.342;25.944;2022-08-21T05:48:56;99932.69;;;26.64;59.99
49122;BME280;35529;44.342;25.944;2022-08-21T05:51:22;99920.88;;;26.77;59.18
49122;BME280;35529;44.342;25.944;2022-08-21T05:53:49;99924.88;;;26.97;57.97
49122;BME280;35529;44.342;25.944;2022-08-21T05:56:15;99906.63;;;27.06;57.56
49122;BME280;35529;44.342;25.944;2022-08-21T05:58:41;99918.97;;;27.04;57.61
49122;BME280;35529;44.342;25.944;2022-08-21T06:01:07;99908.72;;;27.01;57.70
49122;BME280;35529;44.342;25.944;2022-08-21T06:03:35;99915.75;;;27.02;57.87
49122;BME280;35529;44.342;25.944;2022-08-21T06:06:02;99919.44;;;27.15;57.24
49122;BME280;35529;44.342;25.944;2022-08-21T06:08:29;99919.13;;;27.25;56.71
49122;BME280;35529;44.342;25.944;2022-08-21T06:10:55;99929.66;;;27.35;56.79
49122;BME280;35529;44.342;25.944;2022-08-21T06:13:22;99936.41;;;27.47;56.52
49122;BME280;35529;44.342;25.944;2022-08-21T06:15:49;99940.53;;;27.70;55.56
49122;BME280;35529;44.342;25.944;2022-08-21T06:18:16;99946.56;;;27.93;55.21
49122;BME280;35529;44.342;25.944;2022-08-21T06:20:42;99952.00;;;28.02;54.63
49122;BME280;35529;44.342;25.944;2022-08-21T06:23:08;99951.28;;;28.23;54.08
49122;BME280;35529;44.342;25.944;2022-08-21T06:25:35;99957.75;;;28.48;53.18
49122;BME280;35529;44.342;25.944;2022-08-21T06:28:05;99955.72;;;28.66;52.63
49122;BME280;35529;44.342;25.944;2022-08-21T06:30:32;99954.53;;;28.76;52.72
49122;BME280;35529;44.342;25.944;2022-08-21T06:32:58;99955.00;;;28.78;52.27
49122;BME280;35529;44.342;25.944;2022-08-21T06:35:24;99964.91;;;28.83;52.30
49122;BME280;35529;44.342;25.944;2022-08-21T06:37:50;99958.28;;;28.92;52.25
49122;BME280;35529;44.342;25.944;2022-08-21T06:40:16;99959.84;;;29.15;51.26
49122;BME280;35529;44.342;25.944;2022-08-21T06:42:42;99954.38;;;29.36;50.40
49122;BME280;35529;44.342;25.944;2022-08-21T06:45:09;99961.50;;;29.49;49.94
49122;BME280;35529;44.342;25.944;2022-08-21T06:47:35;99960.94;;;29.56;49.52
49122;BME280;35529;44.342;25.944;2022-08-21T06:50:02;99958.94;;;29.65;49.19
49122;BME280;35529;44.342;25.944;2022-08-21T06:52:30;99968.75;;;29.79;48.86
49122;BME280;35529;44.342;25.944;2022-08-21T06:54:56;99967.97;;;29.78;48.75
49122;BME280;35529;44.342;25.944;2022-08-21T06:57:22;99965.22;;;29.78;48.66
49122;BME280;35529;44.342;25.944;2022-08-21T06:59:48;99962.59;;;29.82;48.65
49122;BME280;35529;44.342;25.944;2022-08-21T07:02:14;99963.16;;;29.75;48.44
49122;BME280;35529;44.342;25.944;2022-08-21T07:04:40;99960.69;;;29.82;48.56
49122;BME280;35529;44.342;25.944;2022-08-21T07:07:06;99960.25;;;29.92;48.49
49122;BME280;35529;44.342;25.944;2022-08-21T07:09:32;99957.75;;;30.00;47.92
49122;BME280;35529;44.342;25.944;2022-08-21T07:11:58;99955.81;;;30.00;48.43
49122;BME280;35529;44.342;25.944;2022-08-21T07:14:24;99954.69;;;30.14;48.03
49122;BME280;35529;44.342;25.944;2022-08-21T07:16:51;99955.16;;;30.28;47.43
49122;BME280;35529;44.342;25.944;2022-08-21T07:19:17;99959.34;;;30.38;47.19
49122;BME280;35529;44.342;25.944;2022-08-21T07:21:43;99953.91;;;30.50;46.60
49122;BME280;35529;44.342;25.944;2022-08-21T07:24:09;99949.19;;;30.63;46.33
49122;BME280;35529;44.342;25.944;2022-08-21T07:26:36;99948.75;;;30.61;45.72
49122;BME280;35529;44.342;25.944;2022-08-21T07:29:02;99945.56;;;30.59;46.06
49122;BME280;35529;44.342;25.944;2022-08-21T07:31:28;99941.69;;;30.60;46.11
49122;BME280;35529;44.342;25.944;2022-08-21T07:33:54;99937.47;;;30.50;46.20
49122;BME280;35529;44.342;25.944;2022-08-21T07:36:20;99937.47;;;30.50;45.66
49122;BME280;35529;44.342;25.944;2022-08-21T07:38:46;99935.72;;;30.58;45.73
49122;BME280;35529;44.342;25.944;2022-08-21T07:41:17;99928.22;;;30.55;45.83
49122;BME280;35529;44.342;25.944;2022-08-21T07:43:44;99932.31;;;30.61;46.00
49122;BME280;35529;44.342;25.944;2022-08-21T07:46:10;99927.25;;;30.75;45.42
49122;BME280;35529;44.342;25.944;2022-08-21T07:48:36;99926.06;;;30.89;45.14
49122;BME280;35529;44.342;25.944;2022-08-21T07:51:05;99928.31;;;30.99;44.92
49122;BME280;35529;44.342;25.944;2022-08-21T07:53:32;99921.00;;;31.03;44.56
49122;BME280;35529;44.342;25.944;2022-08-21T07:55:58;99918.56;;;31.14;44.38
49122;BME280;35529;44.342;25.944;2022-08-21T07:58:24;99923.81;;;31.19;43.99
49122;BME280;35529;44.342;25.944;2022-08-21T08:00:50;99910.19;;;31.23;43.50
49122;BME280;35529;44.342;25.944;2022-08-21T08:03:16;99922.50;;;31.29;43.20
49122;BME280;35529;44.342;25.944;2022-08-21T08:05:43;99910.13;;;31.35;43.28
49122;BME280;35529;44.342;25.944;2022-08-21T08:08:09;99906.53;;;31.47;43.12
49122;BME280;35529;44.342;25.944;2022-08-21T08:10:35;99916.44;;;31.52;42.68
49122;BME280;35529;44.342;25.944;2022-08-21T08:13:03;99911.41;;;31.54;42.93
49122;BME280;35529;44.342;25.944;2022-08-21T08:15:29;99907.72;;;31.62;42.53
49122;BME280;35529;44.342;25.944;2022-08-21T08:17:55;99908.16;;;31.64;41.95
49122;BME280;35529;44.342;25.944;2022-08-21T08:20:23;99893.09;;;31.74;41.92
49122;BME280;35529;44.342;25.944;2022-08-21T08:22:50;99896.84;;;31.82;41.97
49122;BME280;35529;44.342;25.944;2022-08-21T08:25:17;99883.72;;;31.91;41.57
49122;BME280;35529;44.342;25.944;2022-08-21T08:27:43;99885.47;;;31.99;41.43
49122;BME280;35529;44.342;25.944;2022-08-21T08:30:11;99885.47;;;31.99;40.96
49122;BME280;35529;44.342;25.944;2022-08-21T08:32:37;99889.47;;;32.02;41.04
49122;BME280;35529;44.342;25.944;2022-08-21T08:35:04;99888.66;;;32.01;40.93
49122;BME280;35529;44.342;25.944;2022-08-21T08:37:31;99880.41;;;32.01;41.00
49122;BME280;35529;44.342;25.944;2022-08-21T08:39:58;99877.25;;;31.99;40.82
49122;BME280;35529;44.342;25.944;2022-08-21T08:42:28;99880.16;;;31.90;40.43
49122;BME280;35529;44.342;25.944;2022-08-21T08:45:00;99877.25;;;31.99;40.81
49122;BME280;35529;44.342;25.944;2022-08-21T08:47:27;99879.41;;;32.09;40.71
49122;BME280;35529;44.342;25.944;2022-08-21T08:52:48;99874.88;;;32.33;40.30
49122;BME280;35529;44.342;25.944;2022-08-21T08:55:19;99865.34;;;32.27;39.99
49122;BME280;35529;44.342;25.944;2022-08-21T08:57:47;99869.38;;;32.33;40.05
49122;BME280;35529;44.342;25.944;2022-08-21T09:00:15;99867.16;;;32.39;39.74
49122;BME280;35529;44.342;25.944;2022-08-21T09:02:43;99858.56;;;32.40;38.94
49122;BME280;35529;44.342;25.944;2022-08-21T09:05:12;99860.50;;;32.40;39.44
49122;BME280;35529;44.342;25.944;2022-08-21T09:07:47;99850.19;;;32.53;38.79
49122;BME280;35529;44.342;25.944;2022-08-21T09:10:17;99857.53;;;32.68;38.51
49122;BME280;35529;44.342;25.944;2022-08-21T09:12:59;99855.56;;;32.85;38.18
49122;BME280;35529;44.342;25.944;2022-08-21T09:20:38;99830.75;;;33.04;37.12
49122;BME280;35529;44.342;25.944;2022-08-21T09:23:25;99835.13;;;33.05;36.95
49122;BME280;35529;44.342;25.944;2022-08-21T09:25:59;99834.06;;;33.14;35.53
49122;BME280;35529;44.342;25.944;2022-08-21T09:28:30;99836.59;;;33.22;35.75
49122;BME280;35529;44.342;25.944;2022-08-21T09:30:57;99827.44;;;33.38;35.19
49122;BME280;35529;44.342;25.944;2022-08-21T09:33:28;99829.22;;;33.50;35.68
49122;BME280;35529;44.342;25.944;2022-08-21T09:35:55;99817.63;;;33.64;35.40
49122;BME280;35529;44.342;25.944;2022-08-21T09:38:51;99827.16;;;33.70;35.39
49122;BME280;35529;44.342;25.944;2022-08-21T09:41:13;99825.81;;;33.83;33.41
49122;BME280;35529;44.342;25.944;2022-08-21T09:43:39;99819.84;;;34.04;33.03
49122;BME280;35529;44.342;25.944;2022-08-21T09:48:38;99815.19;;;34.39;33.12
49122;BME280;35529;44.342;25.944;2022-08-21T09:51:06;99814.28;;;34.62;32.42
49122;BME280;35529;44.342;25.944;2022-08-21T09:53:34;99816.50;;;34.83;31.65
49122;BME280;35529;44.342;25.944;2022-08-21T09:56:05;99811.66;;;35.10;31.09
49122;BME280;35529;44.342;25.944;2022-08-21T09:58:50;99810.16;;;35.20;31.98
49122;BME280;35529;44.342;25.944;2022-08-21T10:01:20;99800.91;;;34.98;31.95
49122;BME280;35529;44.342;25.944;2022-08-21T10:03:47;99797.84;;;35.10;31.86
49122;BME280;35529;44.342;25.944;2022-08-21T10:06:24;99803.28;;;35.03;32.20
49122;BME280;35529;44.342;25.944;2022-08-21T10:08:51;99787.84;;;34.95;31.92
49122;BME280;35529;44.342;25.944;2022-08-21T10:11:28;99805.03;;;34.81;31.51
49122;BME280;35529;44.342;25.944;2022-08-21T10:19:15;99790.09;;;34.48;32.30
49122;BME280;35529;44.342;25.944;2022-08-21T10:24:33;99794.50;;;34.56;31.88
49122;BME280;35529;44.342;25.944;2022-08-21T10:29:44;99779.59;;;34.61;31.65
49122;BME280;35529;44.342;25.944;2022-08-21T10:42:20;99768.16;;;34.58;30.61
49122;BME280;35529;44.342;25.944;2022-08-21T10:47:35;99762.63;;;34.55;31.16
49122;BME280;35529;44.342;25.944;2022-08-21T10:55:19;99766.72;;;34.34;31.86
49122;BME280;35529;44.342;25.944;2022-08-21T10:58:08;99757.78;;;34.14;32.08
49122;BME280;35529;44.342;25.944;2022-08-21T11:03:11;99753.16;;;33.91;32.36
49122;BME280;35529;44.342;25.944;2022-08-21T11:08:08;99764.00;;;33.54;32.86
49122;BME280;35529;44.342;25.944;2022-08-21T11:10:38;99759.34;;;33.08;33.81
49122;BME280;35529;44.342;25.944;2022-08-21T11:13:14;99763.97;;;32.61;35.25
49122;BME280;35529;44.342;25.944;2022-08-21T11:15:53;99765.00;;;32.33;36.29
49122;BME280;35529;44.342;25.944;2022-08-21T11:18:24;99765.16;;;32.21;37.42
49122;BME280;35529;44.342;25.944;2022-08-21T11:21:01;99751.94;;;32.11;37.89
49122;BME280;35529;44.342;25.944;2022-08-21T11:23:35;99742.97;;;31.94;38.80
49122;BME280;35529;44.342;25.944;2022-08-21T11:26:47;99743.53;;;31.84;39.02
49122;BME280;35529;44.342;25.944;2022-08-21T11:28:58;99743.16;;;31.85;38.74
49122;BME280;35529;44.342;25.944;2022-08-21T11:44:49;99719.25;;;31.66;42.41
49122;BME280;35529;44.342;25.944;2022-08-21T11:52:34;99708.25;;;31.15;42.82
49122;BME280;35529;44.342;25.944;2022-08-21T12:00:11;99708.63;;;31.01;43.43
49122;BME280;35529;44.342;25.944;2022-08-21T12:02:50;99702.19;;;30.93;43.78
49122;BME280;35529;44.342;25.944;2022-08-21T12:05:35;99699.88;;;30.95;41.94
49122;BME280;35529;44.342;25.944;2022-08-21T12:08:45;99692.91;;;30.98;42.26
49122;BME280;35529;44.342;25.944;2022-08-21T12:13:37;99696.19;;;31.19;41.90
49122;BME280;35529;44.342;25.944;2022-08-21T12:16:09;99685.47;;;31.30;40.66
49122;BME280;35529;44.342;25.944;2022-08-21T12:18:36;99685.19;;;31.35;40.23
49122;BME280;35529;44.342;25.944;2022-08-21T12:28:39;99684.16;;;31.59;43.18
49122;BME280;35529;44.342;25.944;2022-08-21T12:31:16;99673.41;;;31.67;44.17
49122;BME280;35529;44.342;25.944;2022-08-21T12:33:42;99673.16;;;31.75;43.04
49122;BME280;35529;44.342;25.944;2022-08-21T12:36:16;99670.94;;;31.81;43.54
49122;BME280;35529;44.342;25.944;2022-08-21T12:38:51;99679.25;;;31.85;42.20
49122;BME280;35529;44.342;25.944;2022-08-21T12:41:26;99669.69;;;31.79;41.67
49122;BME280;35529;44.342;25.944;2022-08-21T12:43:56;99669.13;;;31.69;42.06
49122;BME280;35529;44.342;25.944;2022-08-21T12:46:34;99666.84;;;31.55;42.37
49122;BME280;35529;44.342;25.944;2022-08-21T12:49:07;99657.78;;;31.35;43.08
49122;BME280;35529;44.342;25.944;2022-08-21T12:51:55;99663.13;;;31.12;44.59
49122;BME280;35529;44.342;25.944;2022-08-21T12:54:27;99659.03;;;30.90;45.27
49122;BME280;35529;44.342;25.944;2022-08-21T12:57:00;99659.13;;;30.78;45.75
49122;BME280;35529;44.342;25.944;2022-08-21T12:59:27;99662.41;;;30.83;45.31
49122;BME280;35529;44.342;25.944;2022-08-21T13:01:53;99656.56;;;30.85;44.69
49122;BME280;35529;44.342;25.944;2022-08-21T13:04:36;99655.56;;;30.93;43.13
49122;BME280;35529;44.342;25.944;2022-08-21T13:07:06;99652.78;;;31.05;44.64
49122;BME280;35529;44.342;25.944;2022-08-21T13:09:33;99652.16;;;31.12;43.88
49122;BME280;35529;44.342;25.944;2022-08-21T13:11:59;99643.91;;;31.28;42.04
49122;BME280;35529;44.342;25.944;2022-08-21T13:16:58;99660.63;;;31.23;42.07
49122;BME280;35529;44.342;25.944;2022-08-21T13:19:25;99659.13;;;31.25;40.79
49122;BME280;35529;44.342;25.944;2022-08-21T13:21:52;99661.28;;;31.16;41.60
49122;BME280;35529;44.342;25.944;2022-08-21T13:26:45;99664.63;;;31.25;41.46
49122;BME280;35529;44.342;25.944;2022-08-21T13:29:12;99669.13;;;31.18;41.85
49122;BME280;35529;44.342;25.944;2022-08-21T13:31:39;99668.69;;;31.16;41.60
49122;BME280;35529;44.342;25.944;2022-08-21T13:34:06;99667.91;;;31.15;44.00
49122;BME280;35529;44.342;25.944;2022-08-21T13:36:35;99674.72;;;31.05;45.17
49122;BME280;35529;44.342;25.944;2022-08-21T13:39:03;99672.56;;;30.99;45.91
49122;BME280;35529;44.342;25.944;2022-08-21T13:41:31;99683.00;;;30.93;46.43
49122;BME280;35529;44.342;25.944;2022-08-21T13:44:00;99678.41;;;30.81;48.68
49122;BME280;35529;44.342;25.944;2022-08-21T13:46:27;99690.50;;;30.64;50.04
49122;BME280;35529;44.342;25.944;2022-08-21T13:48:54;99692.13;;;30.37;51.25
49122;BME280;35529;44.342;25.944;2022-08-21T13:51:21;99683.84;;;30.21;51.11
49122;BME280;35529;44.342;25.944;2022-08-21T13:53:48;99691.19;;;30.04;50.78
49122;BME280;35529;44.342;25.944;2022-08-21T13:56:28;99691.47;;;29.87;51.08
49122;BME280;35529;44.342;25.944;2022-08-21T13:58:55;99686.81;;;29.75;52.40
49122;BME280;35529;44.342;25.944;2022-08-21T14:01:29;99688.44;;;29.64;52.35
49122;BME280;35529;44.342;25.944;2022-08-21T14:04:39;99686.16;;;29.53;53.17
49122;BME280;35529;44.342;25.944;2022-08-21T14:06:45;99685.84;;;29.42;53.26
49122;BME280;35529;44.342;25.944;2022-08-21T14:09:12;99688.59;;;29.30;53.21
49122;BME280;35529;44.342;25.944;2022-08-21T14:11:39;99684.34;;;29.20;53.20
49122;BME280;35529;44.342;25.944;2022-08-21T14:14:15;99690.81;;;29.16;52.87
49122;BME280;35529;44.342;25.944;2022-08-21T14:16:51;99691.88;;;29.11;52.15
49122;BME280;35529;44.342;25.944;2022-08-21T14:19:19;99693.00;;;29.10;51.50
49122;BME280;35529;44.342;25.944;2022-08-21T14:21:46;99704.63;;;29.07;50.27